Flight Track Log - Related Links

Times and Time Zones

All times are in EDT time to prevent confusion due to time zone crossing. See the UPS2974 flight status page for this flight to view local times or setup timezone preferences in your user account.

Time Position Orientation Groundspeed Altitude Reporting Facility
EDT Latitude Longitude Course Direction KTS MPH feet Rate Location/Type
Mon 04:08:37 PM 38.1760 -85.7450 159° South 166 191 500  Level FlightAware ADS-B
Mon 04:09:07 PM 38.1980 -85.7530 344° North 178 205 1,800 2,182 Climbing FlightAware ADS-B
Mon 04:09:32 PM 38.2170 -85.7650 334° Northwest 204 235 2,500 2,073 Climbing FlightAware ADS-B
Mon 04:10:02 PM 38.2440 -85.7850 330° Northwest 229 264 3,700 2,200 Climbing FlightAware ADS-B
Mon 04:10:32 PM 38.2710 -85.8090 325° Northwest 252 290 4,700 2,250 Climbing FlightAware ADS-B
Mon 04:10:42 PM 38.2760 -85.8220 296° West 252 290 5,200 2,700 Climbing FlightAware ADS-B
Mon 04:10:52 PM 38.2760 -85.8340 270° West 254 292 5,600 2,800 Climbing FlightAware ADS-B
Mon 04:11:27 PM 38.2700 -85.8890 262° West 267 307 7,300 2,880 Climbing FlightAware ADS-B
Mon 04:11:42 PM 38.2570 -85.9080 229° Southwest 273 314 8,000 2,700 Climbing FlightAware ADS-B
Mon 04:12:07 PM 38.2340 -85.9350 223° Southwest 280 322 9,100 2,100 Climbing FlightAware ADS-B
Mon 04:12:22 PM 38.2200 -85.9490 218° Southwest 289 333 9,400 1,600 Climbing FlightAware ADS-B
Mon 04:13:07 PM 38.1700 -86.0040 221° Southwest 334 384 10,700 1,624 Climbing FlightAware ADS-B
Mon 04:13:47 PM 38.1210 -86.0590 221° Southwest 379 436 11,700 2,259 Climbing FlightAware ADS-B
Mon 04:14:32 PM 38.0750 -86.1440 236° Southwest 378 435 13,900 3,075 Climbing FlightAware ADS-B
Mon 04:15:07 PM 38.0600 -86.2180 256° West 384 442 15,800 1,425 Climbing FlightAware ADS-B
Mon 04:15:52 PM 38.0420 -86.3030 255° West 384 442 15,800 2,894 Level FlightAware ADS-B
Mon 04:16:32 PM 38.0410 -86.4130 269° West 404 465 19,900 4,165 Climbing FlightAware ADS-B
Mon 04:17:17 PM 38.0330 -86.5180 265° West 420 483 21,700 2,467 Climbing FlightAware ADS-B
Mon 04:18:02 PM 38.0240 -86.6340 264° West 430 495 23,600 2,400 Climbing FlightAware ADS-B
Mon 04:18:42 PM 38.0160 -86.7340 264° West 438 504 25,100 2,100 Climbing FlightAware ADS-B
Mon 04:19:22 PM 38.0090 -86.8320 265° West 442 509 26,400 1,875 Climbing FlightAware ADS-B
Mon 04:20:02 PM 38.0190 -86.9390 277° West 440 506 27,600 2,047 Climbing FlightAware ADS-B
Mon 04:20:47 PM 38.0440 -87.0460 287° West 433 498 29,300 2,329 Climbing FlightAware ADS-B
Mon 04:21:27 PM 38.0680 -87.1440 287° West 429 494 30,900 2,047 Climbing FlightAware ADS-B
Mon 04:22:12 PM 38.0950 -87.2520 288° West 431 496 32,200 1,341 Climbing FlightAware ADS-B
Mon 04:22:52 PM 38.1190 -87.3480 288° West 422 486 32,800 565 Climbing FlightAware ADS-B
Mon 04:23:37 PM 38.1460 -87.4530 288° West 416 479 33,000 141 Climbing FlightAware ADS-B
Mon 04:24:17 PM 38.1690 -87.5450 288° West 415 478 33,000 212 Level FlightAware ADS-B
Mon 04:25:02 PM 38.1960 -87.6500 288° West 420 483 33,300 918 Climbing FlightAware ADS-B
Mon 04:25:42 PM 38.2200 -87.7470 288° West 422 486 34,300 1,425 Climbing FlightAware ADS-B
Mon 04:26:22 PM 38.2430 -87.8420 287° West 422 486 35,200 1,200 Climbing FlightAware ADS-B
Mon 04:27:07 PM 38.2680 -87.9440 287° West 423 487 36,000 565 Climbing FlightAware ADS-B
Mon 04:27:47 PM 38.2920 -88.0400 288° West 425 489 36,000  Level FlightAware ADS-B
Mon 04:28:27 PM 38.3160 -88.1370 288° West 425 489 36,000  Level FlightAware ADS-B
Mon 04:29:12 PM 38.3420 -88.2430 287° West 427 491 36,000  Level FlightAware ADS-B
Mon 04:29:52 PM 38.3660 -88.3410 287° West 429 494 36,000  Level FlightAware ADS-B
Mon 04:30:32 PM 38.3890 -88.4370 287° West 429 494 36,000  Level FlightAware ADS-B
Mon 04:31:17 PM 38.4150 -88.5450 287° West 430 495 36,000  Level FlightAware ADS-B
Mon 04:32:02 PM 38.4420 -88.6560 287° West 432 497 36,000  Level FlightAware ADS-B
Mon 04:32:42 PM 38.4650 -88.7540 287° West 433 498 36,000  Level FlightAware ADS-B
Mon 04:33:22 PM 38.4880 -88.8510 287° West 435 501 36,000  Level FlightAware ADS-B
Mon 04:34:07 PM 38.5140 -88.9600 287° West 436 502 36,000  Level FlightAware ADS-B
Mon 04:34:47 PM 38.5370 -89.0570 287° West 437 503 36,000  Level FlightAware ADS-B
Mon 04:35:27 PM 38.5600 -89.1570 286° West 438 504 36,000  Level FlightAware ADS-B
Mon 04:36:12 PM 38.5860 -89.2670 287° West 440 506 36,000  Level FlightAware ADS-B
Mon 04:36:52 PM 38.6090 -89.3670 286° West 440 506 36,000  Level FlightAware ADS-B
Mon 04:37:32 PM 38.6300 -89.4610 286° West 440 506 36,000  Level FlightAware ADS-B
Mon 04:38:17 PM 38.6570 -89.5750 287° West 440 506 36,000  Level FlightAware ADS-B
Mon 04:38:52 PM 38.6760 -89.6580 286° West 440 506 36,000  Level FlightAware ADS-B
Mon 04:39:42 PM 38.6990 -89.7650 285° West 440 506 36,000  Level FlightAware ADS-B
Mon 04:40:17 PM 38.7250 -89.8760 287° West 441 507 36,000  Level FlightAware ADS-B
Mon 04:41:07 PM 38.7490 -89.9820 286° West 441 507 36,000  Level FlightAware ADS-B
Mon 04:41:47 PM 38.7680 -90.0680 286° West 441 507 36,000  Level FlightAware ADS-B
Mon 04:42:27 PM 38.7990 -90.2030 286° West 444 511 36,000  Level FlightAware ADS-B
Mon 04:43:12 PM 38.8250 -90.3210 286° West 446 513 36,000  Level FlightAware ADS-B
Mon 04:43:52 PM 38.8480 -90.4240 286° West 446 513 36,000  Level FlightAware ADS-B
Mon 04:44:37 PM 38.8630 -90.5430 279° West 459 528 36,000  Level FlightAware ADS-B
Mon 04:45:17 PM 38.8700 -90.6480 275° West 460 529 36,000  Level FlightAware ADS-B
Mon 04:45:57 PM 38.8740 -90.7490 273° West 460 529 36,000  Level FlightAware ADS-B
Mon 04:46:42 PM 38.8800 -90.8680 274° West 459 528 36,000  Level FlightAware ADS-B
Mon 04:47:22 PM 38.8840 -90.9600 273° West 459 528 36,000  Level FlightAware ADS-B
Mon 04:48:12 PM 38.8930 -91.1190 274° West 458 527 36,000  Level FlightAware ADS-B
Mon 04:49:02 PM 38.8980 -91.2350 273° West 458 527 36,000  Level FlightAware ADS-B
Mon 04:49:32 PM 38.9040 -91.3340 274° West 461 531 36,000  Level FlightAware ADS-B
Mon 04:50:17 PM 38.9090 -91.4480 273° West 461 531 36,000  Level FlightAware ADS-B
Mon 04:51:07 PM 38.9140 -91.5650 273° West 461 531 36,000  Level FlightAware ADS-B
Mon 04:51:52 PM 38.9220 -91.7250 274° West 463 533 36,000  Level FlightAware ADS-B
Mon 04:52:32 PM 38.9270 -91.8310 274° West 464 534 36,000  Level FlightAware ADS-B
Mon 04:53:12 PM 38.9310 -91.9420 273° West 464 534 36,000  Level FlightAware ADS-B
Mon 04:53:57 PM 38.9370 -92.0700 273° West 465 535 36,000  Level FlightAware ADS-B
Mon 04:54:52 PM 38.9410 -92.2110 272° West 466 536 36,000  Level FlightAware ADS-B
Mon 04:55:37 PM 38.9480 -92.3480 274° West 466 536 36,000  Level FlightAware ADS-B
Mon 04:56:17 PM 38.9520 -92.4590 273° West 467 537 36,000  Level FlightAware ADS-B
Mon 04:56:57 PM 38.9560 -92.5690 273° West 467 537 36,000  Level FlightAware ADS-B
Mon 04:57:42 PM 38.9610 -92.6900 273° West 468 539 36,000  Level FlightAware ADS-B
Mon 04:58:22 PM 38.9650 -92.8030 273° West 469 540 36,000  Level FlightAware ADS-B
Mon 04:59:07 PM 38.9690 -92.9270 272° West 470 541 36,000  Level FlightAware ADS-B
Mon 04:59:47 PM 38.9730 -93.0390 273° West 470 541 36,000  Level FlightAware ADS-B
Mon 05:00:27 PM 38.9760 -93.1510 272° West 470 541 36,000  Level FlightAware ADS-B
Mon 05:01:12 PM 38.9800 -93.2770 272° West 471 542 36,000  Level FlightAware ADS-B
Mon 05:01:52 PM 38.9840 -93.3910 273° West 471 542 36,000  Level FlightAware ADS-B
Mon 05:02:32 PM 38.9870 -93.5030 272° West 471 542 36,000  Level FlightAware ADS-B
Mon 05:03:17 PM 38.9900 -93.6250 272° West 471 542 36,000  Level FlightAware ADS-B
Mon 05:03:57 PM 38.9930 -93.7360 272° West 470 541 36,000  Level FlightAware ADS-B
Mon 05:04:42 PM 38.9970 -93.8660 272° West 469 540 36,000  Level FlightAware ADS-B
Mon 05:05:22 PM 39.0000 -93.9760 272° West 467 537 36,000  Level FlightAware ADS-B
Mon 05:06:02 PM 39.0090 -94.0840 276° West 463 533 36,000  Level FlightAware ADS-B
Mon 05:06:47 PM 39.0220 -94.2040 278° West 463 533 36,000  Level FlightAware ADS-B
Mon 05:07:27 PM 39.0340 -94.3150 278° West 463 533 36,000  Level FlightAware ADS-B
Mon 05:08:12 PM 39.0470 -94.4380 278° West 464 534 36,000  Level FlightAware ADS-B
Mon 05:08:52 PM 39.0590 -94.5460 278° West 463 533 36,000  Level FlightAware ADS-B
Mon 05:09:37 PM 39.0710 -94.6670 277° West 461 531 36,000  Level FlightAware ADS-B
Mon 05:10:17 PM 39.0820 -94.7740 278° West 458 527 36,000  Level FlightAware ADS-B
Mon 05:10:57 PM 39.0930 -94.8820 278° West 457 526 36,000  Level FlightAware ADS-B
Mon 05:11:42 PM 39.1060 -95.0050 278° West 457 526 36,000  Level FlightAware ADS-B
Mon 05:12:22 PM 39.1170 -95.1150 277° West 458 527 36,000  Level FlightAware ADS-B
Mon 05:13:07 PM 39.1280 -95.2280 277° West 458 527 36,000  Level FlightAware ADS-B
Mon 05:13:47 PM 39.1380 -95.3330 277° West 459 528 36,000  Level FlightAware ADS-B
Mon 05:14:27 PM 39.1500 -95.4500 278° West 460 529 36,000  Level FlightAware ADS-B
Mon 05:15:07 PM 39.1600 -95.5520 277° West 462 532 36,000  Level FlightAware ADS-B
Mon 05:15:52 PM 39.1720 -95.6820 277° West 465 535 36,000  Level FlightAware ADS-B
Mon 05:16:32 PM 39.1820 -95.7910 277° West 466 536 36,000  Level FlightAware ADS-B
Mon 05:17:17 PM 39.1940 -95.9180 277° West 468 539 36,000  Level FlightAware ADS-B
Mon 05:17:57 PM 39.2050 -96.0310 277° West 469 540 36,000  Level FlightAware ADS-B
Mon 05:18:37 PM 39.2080 -96.0700 276° West 469 540 36,000  Level FlightAware ADS-B
Mon 05:19:17 PM 39.2180 -96.1700 277° West 469 540 36,000  Level FlightAware ADS-B
Mon 05:20:02 PM 39.2360 -96.3740 277° West 469 540 36,000  Level FlightAware ADS-B
Mon 05:20:47 PM 39.2470 -96.5000 276° West 469 540 36,000  Level FlightAware ADS-B
Mon 05:21:27 PM 39.2570 -96.6110 277° West 467 537 36,000  Level FlightAware ADS-B
Mon 05:22:12 PM 39.2670 -96.7350 276° West 467 537 36,000  Level FlightAware ADS-B
Mon 05:22:52 PM 39.2770 -96.8440 277° West 467 537 36,000  Level FlightAware ADS-B
Mon 05:23:32 PM 39.2860 -96.9540 276° West 468 539 36,000  Level FlightAware ADS-B
Mon 05:24:12 PM 39.2950 -97.0590 276° West 468 539 36,000  Level FlightAware ADS-B
Mon 05:24:57 PM 39.3040 -97.1750 276° West 468 539 36,000  Level FlightAware ADS-B
Mon 05:25:42 PM 39.3150 -97.3160 276° West 468 539 36,000  Level FlightAware ADS-B
Mon 05:26:22 PM 39.3220 -97.4140 275° West 468 539 36,000  Level FlightAware ADS-B
Mon 05:27:02 PM 39.3330 -97.5390 277° West 469 540 36,000  Level FlightAware ADS-B
Mon 05:27:47 PM 39.3430 -97.6610 276° West 470 541 36,000  Level FlightAware ADS-B
Mon 05:28:27 PM 39.3520 -97.7770 276° West 472 543 36,000  Level FlightAware ADS-B
Mon 05:29:07 PM 39.3600 -97.8900 275° West 472 543 36,000  Level FlightAware ADS-B
Mon 05:29:52 PM 39.3680 -98.0030 275° West 472 543 36,000  Level FlightAware ADS-B
Mon 05:30:32 PM 39.3770 -98.1160 276° West 474 545 36,000  Level FlightAware ADS-B
Mon 05:31:27 PM 39.3890 -98.2780 276° West 475 547 36,000  Level FlightAware ADS-B
Mon 05:32:12 PM 39.3970 -98.4020 275° West 474 545 36,000  Level FlightAware ADS-B
Mon 05:32:52 PM 39.4050 -98.5050 276° West 474 545 36,000  Level FlightAware ADS-B
Mon 05:33:32 PM 39.4110 -98.6010 275° West 474 545 36,000  Level FlightAware ADS-B
Mon 05:34:12 PM 39.4180 -98.6970 275° West 474 545 36,000  Level FlightAware ADS-B
Mon 05:34:52 PM 39.4240 -98.7930 275° West 474 545 36,000  Level FlightAware ADS-B
Mon 05:35:42 PM 39.4320 -98.9130 275° West 474 545 36,000  Level FlightAware ADS-B
Mon 05:36:22 PM 39.4390 -99.0090 275° West 474 545 36,000  Level FlightAware ADS-B
Mon 05:37:02 PM 39.4450 -99.1060 275° West 474 545 36,000  Level FlightAware ADS-B
Mon 05:37:42 PM 39.4520 -99.2020 275° West 474 545 36,000  Level FlightAware ADS-B
Mon 05:38:32 PM 39.4600 -99.3220 275° West 474 545 36,000  Level FlightAware ADS-B
Mon 05:39:12 PM 39.4660 -99.4180 275° West 474 545 36,000  Level FlightAware ADS-B
Mon 05:39:52 PM 39.4730 -99.5150 275° West 474 545 36,000  Level FlightAware ADS-B
Mon 05:40:32 PM 39.4790 -99.6110 275° West 474 545 36,000  Level FlightAware ADS-B
Mon 05:41:12 PM 39.4860 -99.7070 275° West 474 545 36,000  Level FlightAware ADS-B
Mon 05:41:52 PM 39.4920 -99.8030 275° West 474 545 36,000  Level FlightAware ADS-B
Mon 05:42:09 PM 39.5108 -100.0619 275° West 473 544 36,000  Level Denver Center
Mon 05:48:19 PM 39.7085 -101.0970 275° West 467 537 36,000  Level FlightAware ADS-B
Mon 05:48:50 PM 39.7239 -101.1810 283° West 468 539 36,000  Level FlightAware ADS-B
Mon 05:49:22 PM 39.7398 -101.2680 283° West 468 539 36,000  Level FlightAware ADS-B
Mon 05:49:52 PM 39.7549 -101.3500 283° West 469 540 36,000  Level FlightAware ADS-B
Mon 05:50:23 PM 39.7699 -101.4330 283° West 470 541 36,000  Level FlightAware ADS-B
Mon 05:50:53 PM 39.7853 -101.5180 283° West 470 541 36,000  Level FlightAware ADS-B
Mon 05:51:23 PM 39.8001 -101.6000 283° West 470 541 36,000  Level FlightAware ADS-B
Mon 05:51:55 PM 39.8158 -101.6880 283° West 472 543 36,000  Level FlightAware ADS-B
Mon 05:52:26 PM 39.8310 -101.7730 283° West 472 543 36,000  Level FlightAware ADS-B
Mon 05:52:56 PM 39.8458 -101.8560 283° West 472 543 36,000  Level FlightAware ADS-B
Mon 05:53:28 PM 39.8613 -101.9430 283° West 472 543 36,000  Level FlightAware ADS-B
Mon 05:53:58 PM 39.8759 -102.0260 283° West 473 544 36,000  Level FlightAware ADS-B
Mon 05:54:31 PM 39.8921 -102.1190 283° West 473 544 36,000  Level FlightAware ADS-B
Mon 05:55:03 PM 39.9074 -102.2060 283° West 473 544 36,000  Level FlightAware ADS-B
Mon 05:55:33 PM 39.9219 -102.2900 283° West 474 545 36,000  Level FlightAware ADS-B
Mon 05:56:04 PM 39.9369 -102.3760 283° West 475 547 36,000  Level FlightAware ADS-B
Mon 05:56:35 PM 39.9514 -102.4610 283° West 475 547 36,000  Level FlightAware ADS-B
Mon 05:57:05 PM 39.9660 -102.5460 283° West 475 547 36,000  Level FlightAware ADS-B
Mon 05:57:37 PM 39.9811 -102.6340 283° West 476 548 36,000  Level FlightAware ADS-B
Mon 05:58:07 PM 39.9954 -102.7190 282° West 477 549 36,000  Level FlightAware ADS-B
Mon 05:58:38 PM 40.0098 -102.8050 282° West 478 550 36,000  Level FlightAware ADS-B
Mon 05:59:08 PM 40.0241 -102.8900 282° West 479 551 36,000  Level FlightAware ADS-B
Mon 05:59:39 PM 40.0387 -102.9770 282° West 480 552 36,000  Level FlightAware ADS-B
Mon 06:00:09 PM 40.0530 -103.0630 282° West 480 552 36,000  Level FlightAware ADS-B
Mon 06:00:39 PM 40.0671 -103.1480 282° West 480 552 36,000  Level FlightAware ADS-B
Mon 06:01:10 PM 40.0811 -103.2330 282° West 479 551 36,000  Level FlightAware ADS-B
Mon 06:01:40 PM 40.0950 -103.3180 282° West 478 550 36,000  Level FlightAware ADS-B
Mon 06:02:10 PM 40.1090 -103.4040 282° West 479 551 36,000  Level FlightAware ADS-B
Mon 06:02:42 PM 40.1235 -103.4930 282° West 477 549 36,000  Level FlightAware ADS-B
Mon 06:03:13 PM 40.1375 -103.5800 282° West 477 549 36,000  Level FlightAware ADS-B
Mon 06:03:43 PM 40.1512 -103.6650 282° West 475 547 36,000  Level FlightAware ADS-B
Mon 06:04:14 PM 40.1649 -103.7500 282° West 475 547 36,000  Level FlightAware ADS-B
Mon 06:04:44 PM 40.1785 -103.8360 282° West 475 547 36,000  Level FlightAware ADS-B
Mon 06:05:15 PM 40.1922 -103.9220 282° West 476 548 36,000  Level FlightAware ADS-B
Mon 06:05:45 PM 40.2053 -104.0060 282° West 474 545 36,000  Level FlightAware ADS-B
Mon 06:06:15 PM 40.2187 -104.0910 282° West 476 548 36,000  Level FlightAware ADS-B
Mon 06:06:45 PM 40.2318 -104.1750 282° West 476 548 36,000  Level FlightAware ADS-B
Mon 06:07:15 PM 40.2451 -104.2610 281° West 476 548 36,000  Level FlightAware ADS-B
Mon 06:07:46 PM 40.2585 -104.3470 282° West 476 548 36,000  Level FlightAware ADS-B
Mon 06:08:16 PM 40.2715 -104.4320 281° West 476 548 36,000  Level FlightAware ADS-B
Mon 06:08:47 PM 40.2845 -104.5180 281° West 476 548 36,000  Level FlightAware ADS-B
Mon 06:09:18 PM 40.2982 -104.6080 281° West 478 550 36,000  Level FlightAware ADS-B
Mon 06:09:49 PM 40.3114 -104.6950 281° West 479 551 36,000  Level FlightAware ADS-B
Mon 06:10:19 PM 40.3242 -104.7800 281° West 478 550 36,000  Level FlightAware ADS-B
Mon 06:10:49 PM 40.3370 -104.8660 281° West 478 550 36,000  Level FlightAware ADS-B
Mon 06:11:20 PM 40.3497 -104.9520 281° West 478 550 36,000  Level FlightAware ADS-B
Mon 06:11:50 PM 40.3625 -105.0380 281° West 477 549 36,000  Level FlightAware ADS-B
Mon 06:12:20 PM 40.3751 -105.1240 281° West 476 548 36,000  Level FlightAware ADS-B
Mon 06:12:51 PM 40.3876 -105.2090 281° West 476 548 36,000  Level FlightAware ADS-B
Mon 06:13:21 PM 40.4003 -105.2960 281° West 475 547 36,000  Level FlightAware ADS-B
Mon 06:13:51 PM 40.4125 -105.3810 281° West 475 547 36,000  Level FlightAware ADS-B
Mon 06:14:52 PM 40.4360 -105.5470 281° West 474 545 36,000  Level FlightAware ADS-B
Mon 06:15:01 PM 40.4408 -105.5780 282° West 474 545 36,000  Level FlightAware ADS-B
Mon 06:15:37 PM 40.4540 -105.6730 280° West 473 544 36,000  Level FlightAware ADS-B
Mon 06:16:17 PM 40.4700 -105.7830 281° West 472 543 36,000  Level FlightAware ADS-B
Mon 06:16:57 PM 40.4860 -105.8970 280° West 471 542 36,000  Level FlightAware ADS-B
Mon 06:17:42 PM 40.5070 -106.0230 282° West 472 543 36,000  Level FlightAware ADS-B
Mon 06:18:22 PM 40.5310 -106.1240 287° West 472 543 36,000  Level FlightAware ADS-B
Mon 06:19:02 PM 40.5510 -106.2180 286° West 472 543 36,000  Level FlightAware ADS-B
Mon 06:20:02 PM 40.6060 -106.3940 292° West 470 541 36,000  Level FlightAware ADS-B
Mon 06:20:42 PM 40.6300 -106.4860 289° West 470 541 36,000  Level FlightAware ADS-B
Mon 06:21:42 PM 40.6800 -106.6730 289° West 468 539 36,000  Level FlightAware ADS-B
Mon 06:22:17 PM 40.7020 -106.7550 290° West 468 539 36,000  Level FlightAware ADS-B
Mon 06:23:07 PM 40.7320 -106.8700 289° West 468 539 36,000  Level FlightAware ADS-B
Mon 06:23:47 PM 40.7560 -106.9620 289° West 468 539 36,000  Level FlightAware ADS-B
Mon 06:24:27 PM 40.7800 -107.0540 289° West 468 539 36,000  Level FlightAware ADS-B
Mon 06:25:07 PM 40.8040 -107.1460 289° West 468 539 36,000  Level FlightAware ADS-B
Mon 06:25:47 PM 40.8280 -107.2380 289° West 468 539 36,000  Level FlightAware ADS-B
Mon 06:26:27 PM 40.8510 -107.3300 288° West 468 539 36,000  Level FlightAware ADS-B
Mon 06:27:17 PM 40.8810 -107.4450 289° West 468 539 36,000  Level FlightAware ADS-B
Mon 06:27:57 PM 40.9050 -107.5370 289° West 468 539 36,000  Level FlightAware ADS-B
Mon 06:28:37 PM 40.9290 -107.6290 289° West 468 539 36,000  Level FlightAware ADS-B
Mon 06:29:17 PM 40.9530 -107.7210 289° West 468 539 36,000  Level FlightAware ADS-B
Mon 06:29:57 PM 40.9770 -107.8130 289° West 468 539 36,000  Level FlightAware ADS-B
Mon 06:30:37 PM 41.0010 -107.9060 289° West 468 539 36,000  Level FlightAware ADS-B
Mon 06:31:27 PM 41.0310 -108.0210 289° West 468 539 36,000  Level FlightAware ADS-B
Mon 06:32:32 PM 41.1258 -108.4219 289° West 467 537 36,000  Level Salt Lake Center
Mon 06:33:34 PM 41.1642 -108.5778 288° West 464 534 36,000  Level Salt Lake Center
Mon 06:34:35 PM 41.2083 -108.7614 288° West 465 535 36,000  Level Salt Lake Center
Mon 06:35:37 PM 41.2456 -108.9186 288° West 465 535 36,000  Level Salt Lake Center
Mon 06:36:38 PM 41.2822 -109.0778 287° West 466 536 36,000  Level Salt Lake Center
Mon 06:37:40 PM 41.3281 -109.2694 288° West 475 547 36,000  Level Salt Lake Center
Mon 06:38:41 PM 41.3664 -109.4306 288° West 472 543 36,000  Level Salt Lake Center
Mon 06:39:43 PM 41.4039 -109.5894 288° West 469 540 36,000  Level Salt Lake Center
Mon 06:40:45 PM 41.4467 -109.7733 287° West 465 535 36,000  Level Salt Lake Center
Mon 06:41:46 PM 41.4836 -109.9311 287° West 466 536 36,000  Level Salt Lake Center
Mon 06:42:48 PM 41.5397 -110.1086 293° West 464 534 36,000  Level Salt Lake Center
Mon 06:43:49 PM 41.5967 -110.2561 297° West 465 535 36,000  Level Salt Lake Center
Mon 06:44:51 PM 41.6533 -110.4033 297° West 466 536 36,000  Level Salt Lake Center
Mon 06:45:52 PM 41.7181 -110.5747 297° West 463 533 36,000  Level Salt Lake Center
Mon 06:46:54 PM 41.7736 -110.7206 297° West 460 529 36,000  Level Salt Lake Center
Mon 06:47:56 PM 41.8364 -110.8922 296° West 457 526 36,000  Level Salt Lake Center
Mon 06:48:57 PM 41.8928 -111.0397 297° West 457 526 36,000  Level Salt Lake Center
Mon 06:49:59 PM 41.9483 -111.1917 296° West 457 526 36,000  Level Salt Lake Center
Mon 06:51:00 PM 42.0050 -111.3431 297° West 457 526 36,000  Level Salt Lake Center
Mon 06:52:02 PM 42.0594 -111.4950 296° West 455 524 36,000  Level Salt Lake Center
Mon 06:53:03 PM 42.1150 -111.6458 296° West 453 521 36,000  Level Salt Lake Center
Mon 06:54:05 PM 42.1803 -111.8258 296° West 448 516 36,000  Level Salt Lake Center
Mon 06:55:06 PM 42.2347 -111.9767 296° West 450 518 36,000  Level Salt Lake Center
Mon 06:56:08 PM 42.2889 -112.1275 296° West 448 516 36,000  Level Salt Lake Center
Mon 06:57:09 PM 42.3425 -112.2778 296° West 447 514 36,000  Level Salt Lake Center
Mon 06:58:10 PM 42.3953 -112.4272 296° West 443 510 36,000  Level Salt Lake Center
Mon 06:59:12 PM 42.4489 -112.5789 296° West 446 513 36,000  Level Salt Lake Center
Mon 07:00:13 PM 42.5017 -112.7294 295° West 446 513 36,000  Level Salt Lake Center
Mon 07:01:14 PM 42.5658 -112.9106 296° West 445 512 36,000  Level Salt Lake Center
Mon 07:02:16 PM 42.6172 -113.0628 295° West 444 511 36,000  Level Salt Lake Center
Mon 07:03:17 PM 42.6694 -113.2117 296° West 440 506 36,000  Level Salt Lake Center
Mon 07:04:19 PM 42.7217 -113.3533 297° West 446 513 36,000  Level Salt Lake Center
Mon 07:05:20 PM 42.7867 -113.5192 298° West 446 513 36,000  Level Salt Lake Center
Mon 07:06:21 PM 42.8425 -113.6619 298° West 445 512 36,000  Level Salt Lake Center
Mon 07:07:23 PM 42.9072 -113.8275 298° West 442 509 36,000  Level Salt Lake Center
Mon 07:08:24 PM 42.9569 -113.9597 297° West 449 517 36,000  Level Salt Lake Center
Mon 07:09:25 PM 43.0122 -114.1072 297° West 438 504 36,000  Level Salt Lake Center
Mon 07:10:27 PM 43.0842 -114.2831 299° West 444 511 36,000  Level Salt Lake Center
Mon 07:11:28 PM 43.1369 -114.4236 297° West 433 498 36,000  Level Salt Lake Center
Mon 07:12:29 PM 43.1919 -114.5653 298° West 437 503 36,000  Level Salt Lake Center
Mon 07:13:31 PM 43.2544 -114.7314 297° West 438 504 36,000  Level Salt Lake Center
Mon 07:14:32 PM 43.3083 -114.8744 297° West 441 507 36,000  Level Salt Lake Center
Mon 07:15:34 PM 43.3706 -115.0397 297° West 435 501 36,000  Level Salt Lake Center
Mon 07:16:35 PM 43.4222 -115.1806 297° West 431 496 36,000  Level Salt Lake Center
Mon 07:17:36 PM 43.4744 -115.3219 297° West 431 496 36,000  Level Salt Lake Center
Mon 07:18:38 PM 43.5361 -115.4872 297° West 433 498 36,000  Level Salt Lake Center
Mon 07:19:39 PM 43.5878 -115.6281 297° West 429 494 36,000  Level Salt Lake Center
Mon 07:20:41 PM 43.6394 -115.7714 297° West 434 499 36,000  Level Salt Lake Center
Mon 07:21:42 PM 43.6989 -115.9353 297° West 427 491 36,000  Level Salt Lake Center
Mon 07:22:44 PM 43.7500 -116.0775 296° West 430 495 36,000  Level Salt Lake Center
Mon 07:23:45 PM 43.8094 -116.2422 297° West 426 490 36,000  Level Salt Lake Center
Mon 07:24:47 PM 43.8600 -116.3853 296° West 430 495 36,000  Level Salt Lake Center
Mon 07:25:48 PM 43.9103 -116.5267 296° West 428 493 36,000  Level Salt Lake Center
Mon 07:26:50 PM 43.9692 -116.6939 296° West 431 496 36,000  Level Salt Lake Center
Mon 07:27:51 PM 44.0183 -116.8361 296° West 426 490 36,000  Level Salt Lake Center
Mon 07:28:53 PM 44.0769 -117.0028 296° West 425 489 36,000  Level Salt Lake Center
Mon 07:29:55 PM 44.1258 -117.1442 296° West 421 484 36,000  Level Salt Lake Center
Mon 07:30:56 PM 44.1747 -117.2831 296° West 418 481 36,000  Level Salt Lake Center
Mon 07:31:58 PM 44.2306 -117.4461 296° West 416 479 36,000  Level Salt Lake Center
Mon 07:32:59 PM 44.2789 -117.5850 296° West 415 478 36,000  Level Salt Lake Center
Mon 07:34:01 PM 44.3342 -117.7472 296° West 414 476 36,000  Level Salt Lake Center
Mon 07:35:03 PM 44.3800 -117.8878 295° West 415 478 36,000  Level Salt Lake Center
Mon 07:36:05 PM 44.4278 -118.0275 296° West 415 478 36,000  Level Salt Lake Center
Mon 07:37:06 PM 44.4828 -118.1933 295° West 419 482 36,000  Level Salt Lake Center
Mon 07:37:23 PM 44.4961 -118.2300 297° West 419 482 36,000  Level Seattle Center
Mon 07:38:24 PM 44.5442 -118.3786 294° West 420 483 36,000  Level Seattle Center
Mon 07:39:10 PM 44.5839 -118.4950 296° West 416 479 36,000  Level Salt Lake Center
Mon 07:40:11 PM 44.6317 -118.6417 295° West 414 476 36,000  Level Salt Lake Center
Mon 07:40:26 PM 44.6414 -118.6708 295° West 416 479 36,000  Level Seattle Center
Mon 07:41:27 PM 44.6886 -118.8156 295° West 411 473 36,000  Level Seattle Center
Mon 07:42:28 PM 44.7344 -118.9600 294° West 406 467 36,000  Level Seattle Center
Mon 07:43:29 PM 44.7825 -119.1036 295° West 408 470 36,000  Level Seattle Center
Mon 07:44:30 PM 44.8278 -119.2472 294° West 404 465 36,000  Level Seattle Center
Mon 07:45:31 PM 44.8725 -119.3889 294° West 400 460 36,000  Level Seattle Center
Mon 07:46:32 PM 44.9264 -119.5589 294° West 397 457 36,000  Level Seattle Center
Mon 07:47:33 PM 44.9711 -119.7017 294° West 401 461 36,000  Level Seattle Center
Mon 07:48:33 PM 45.0158 -119.8422 294° West 400 460 36,000  Level Seattle Center
Mon 07:49:34 PM 45.0572 -120.0000 290° West 402 463 36,000  Level Seattle Center
Mon 07:50:35 PM 45.0942 -120.1339 291° West 412 474 36,000  Level Seattle Center
Mon 07:51:36 PM 45.1350 -120.2836 291° West 412 474 36,000 -344 Level Seattle Center
Mon 07:52:37 PM 45.1758 -120.4361 291° West 415 478 35,300 -2,016 Descending Seattle Center
Mon 07:53:38 PM 45.2233 -120.6114 291° West 400 460 31,900 -3,098 Descending Seattle Center
Mon 07:54:39 PM 45.2619 -120.7542 291° West 389 448 29,000 -2,951 Descending Seattle Center
Mon 07:55:40 PM 45.3003 -120.8969 291° West 388 447 25,900 -2,803 Descending Seattle Center
Mon 07:56:41 PM 45.3361 -121.0378 290° West 381 438 23,300 -2,557 Descending Seattle Center
Mon 07:57:42 PM 45.3725 -121.1753 291° West 373 429 20,700 -2,754 Descending Seattle Center
Mon 07:58:43 PM 45.4067 -121.3064 290° West 357 411 17,700 -2,897 Descending Seattle Center
Mon 07:59:09 PM 45.4256 -121.3681 294° West 346 398 16,500 -2,714 Descending Seattle Center
Mon 07:59:25 PM 45.4361 -121.4069 291° West 337 388 15,800 -2,108 Descending Seattle Center
Mon 07:59:46 PM 45.4392 -121.4319 280° West 341 392 15,200 -2,164 Descending Seattle Center
Mon 08:00:26 PM 45.4658 -121.5269 292° West 303 349 13,600 -1,967 Descending Seattle Center
Mon 08:00:47 PM 45.4692 -121.5456 284° West 309 356 13,200 -1,279 Descending Seattle Center
Mon 08:01:27 PM 45.4833 -121.6403 282° West 293 337 12,300 -1,082 Descending Seattle Center
Mon 08:01:48 PM 45.4833 -121.6614 270° West 298 343 12,100 -985 Descending Seattle Center
Mon 08:02:34 PM 45.4983 -121.7636 282° West 272 313 11,200 -885 Descending Seattle Center
Mon 08:02:49 PM 45.4956 -121.7697 237° Southwest 281 323 11,200 -800 Level Seattle Center
Mon 08:03:34 PM 45.4872 -121.8550 262° West 219 252 10,400 -1,082 Descending Seattle Center
Mon 08:03:50 PM 45.4792 -121.8731 238° Southwest 227 261 10,100 -1,714 Descending Seattle Center
Mon 08:04:51 PM 45.4544 -121.9458 244° Southwest 226 260 8,200 -1,698 Descending Seattle Center
Mon 08:05:36 PM 45.4314 -122.0142 244° Southwest 229 264 7,100 -1,200 Descending Seattle Center
Mon 08:05:51 PM 45.4294 -122.0275 258° West 227 261 7,000 -885 Descending Seattle Center
Mon 08:06:37 PM 45.4069 -122.0858 241° Southwest 195 224 6,200 -1,082 Descending Seattle Center
Mon 08:06:52 PM 45.4061 -122.0989 265° West 205 236 5,900 -900 Descending Seattle Center
Mon 08:07:37 PM 45.4300 -122.1658 297° West 204 235 5,300 -689 Descending Seattle Center
Mon 08:07:53 PM 45.4319 -122.1722 293° West 204 235 5,200 -787 Descending Seattle Center
Mon 08:08:38 PM 45.4514 -122.2278 297° West 174 200 4,500 -885 Descending Seattle Center
Mon 08:08:54 PM 45.4544 -122.2322 314° West 183 211 4,300 -982 Descending Seattle Center
Mon 08:09:33 PM 45.4711 -122.2814 296° West 168 193 3,600 -787 Descending Seattle Center
Mon 08:09:55 PM 45.4808 -122.3028 303° West 172 198 3,500 -98 Descending Seattle Center
Mon 08:10:34 PM 45.4944 -122.3425 296° West 167 192 3,500 -197 Level Seattle Center
Mon 08:10:56 PM 45.5031 -122.3611 303° West 169 194 3,300 -800 Descending Seattle Center
Mon 08:11:34 PM 45.5194 -122.4003 301° West 170 196 2,700 -885 Descending Seattle Center
Mon 08:11:57 PM 45.5253 -122.4183 295° West 166 191 2,400 -806 Descending Seattle Center
Mon 08:12:41 PM 45.5428 -122.4617 300° West 164 189 1,800 -885 Descending Seattle Center
Mon 08:12:58 PM 45.5475 -122.4736 299° West 164 189 1,500 -787 Descending Seattle Center
Mon 08:13:42 PM 45.5606 -122.5067 299° West 133 153 1,000 -700 Descending Seattle Center
Mon 08:13:58 PM 45.5669 -122.5228 300° West 156 180 800 -689 Descending Seattle Center
Mon 08:14:43 PM 45.5789 -122.5547 298° West 128 147 300 -393 Descending Seattle Center
Mon 08:14:59 PM 45.5822 -122.5606 309° West 148 170 400 375 Climbing Seattle Center

Login

Don't have an account? Register now (free) for customized features, flight alerts, and more!